Time;durP1;ratioP1;P1;durP2;ratioP2;P2;SDS_P1;SDS_P2;PMS_P1;PMS_P2;Temp;Humidity;BMP_temperature;BMP_pressure;BME280_temperature;BME280_humidity;BME280_pressure;Samples;Min_cycle;Max_cycle;Signal;HPM_P1;HPM_P2
2024/01/20 00:00:19;;;;;;;3.45;2.50;;;2.30;99.90;;;;;;5042324;28;20192;-46
2024/01/20 00:02:47;;;;;;;3.60;2.47;;;2.30;99.60;;;;;;5037461;28;20213;-46
2024/01/20 00:05:16;;;;;;;4.10;2.78;;;2.30;99.50;;;;;;5041855;28;20615;-44
2024/01/20 00:07:44;;;;;;;4.20;2.47;;;2.30;99.50;;;;;;5039895;28;20651;-45
2024/01/20 00:10:14;;;;;;;3.58;2.38;;;2.30;99.60;;;;;;5042284;28;20177;-45
2024/01/20 00:12:43;;;;;;;3.05;2.10;;;2.30;99.50;;;;;;5040261;28;20231;-44
2024/01/20 00:15:12;;;;;;;3.28;2.22;;;2.30;99.60;;;;;;5046219;28;20579;-46
2024/01/20 00:17:41;;;;;;;3.33;2.25;;;2.30;99.50;;;;;;5044899;28;20220;-45
2024/01/20 00:20:11;;;;;;;3.15;2.40;;;2.30;99.50;;;;;;5042478;28;20757;-46
2024/01/20 00:22:39;;;;;;;4.07;1.95;;;2.30;99.60;;;;;;5043504;28;20640;-46
2024/01/20 00:25:08;;;;;;;4.15;2.70;;;2.30;99.50;;;;;;5045542;28;20212;-45
2024/01/20 00:27:39;;;;;;;2.90;1.98;;;2.30;99.50;;;;;;5041408;28;20189;-45
2024/01/20 00:30:09;;;;;;;2.67;2.00;;;2.30;99.60;;;;;;5046505;28;20906;-45
2024/01/20 00:32:38;;;;;;;3.83;2.22;;;2.30;99.50;;;;;;5043351;28;20225;-46
2024/01/20 00:35:06;;;;;;;4.55;2.50;;;2.30;99.50;;;;;;5040944;28;20683;-47
2024/01/20 00:37:37;;;;;;;3.85;2.55;;;2.30;99.40;;;;;;5041674;28;20689;-46
2024/01/20 00:40:07;;;;;;;3.40;2.20;;;2.30;99.50;;;;;;5045920;28;20208;-46
2024/01/20 00:42:35;;;;;;;3.47;2.33;;;2.30;99.40;;;;;;5047255;28;20763;-45
2024/01/20 00:45:06;;;;;;;4.10;2.88;;;2.20;99.10;;;;;;5048858;28;20242;-45
2024/01/20 00:47:34;;;;;;;3.13;2.55;;;2.20;99.10;;;;;;5042644;28;20543;-46
2024/01/20 00:50:08;;;;;;;4.25;2.33;;;2.20;99.30;;;;;;5047578;28;20205;-47
2024/01/20 00:52:36;;;;;;;3.58;2.75;;;2.20;99.50;;;;;;5028188;28;20236;-47
2024/01/20 00:55:05;;;;;;;3.90;2.58;;;2.20;99.60;;;;;;5042224;28;20646;-44
2024/01/20 00:57:33;;;;;;;3.58;2.50;;;2.20;99.50;;;;;;5040651;28;20199;-44
2024/01/20 01:00:06;;;;;;;4.38;2.50;;;2.20;99.30;;;;;;5048439;28;20678;-45
2024/01/20 01:02:36;;;;;;;3.50;2.25;;;2.20;99.80;;;;;;5043368;28;20494;-46
2024/01/20 01:05:06;;;;;;;2.58;1.83;;;2.20;99.50;;;;;;5042597;28;20601;-45
2024/01/20 01:07:35;;;;;;;3.40;2.40;;;2.20;99.40;;;;;;5042952;28;20622;-47
2024/01/20 01:10:04;;;;;;;4.13;2.50;;;2.20;99.40;;;;;;5042102;28;20193;-44
2024/01/20 01:12:31;;;;;;;3.85;2.38;;;2.20;99.50;;;;;;5043182;28;20275;-46
2024/01/20 01:15:01;;;;;;;4.75;2.58;;;2.20;99.40;;;;;;5044437;28;20291;-46
2024/01/20 01:17:29;;;;;;;3.00;1.80;;;2.20;99.40;;;;;;5044867;28;20205;-46
2024/01/20 01:19:58;;;;;;;3.90;2.33;;;2.20;99.40;;;;;;5040795;28;20218;-45
2024/01/20 01:22:27;;;;;;;3.45;2.50;;;2.20;99.50;;;;;;5047093;28;20204;-49
2024/01/20 01:24:55;;;;;;;3.65;2.25;;;2.20;99.30;;;;;;5042296;28;20217;-48
2024/01/20 01:27:23;;;;;;;6.85;2.55;;;2.20;99.40;;;;;;5045062;28;20196;-46
2024/01/20 01:29:52;;;;;;;2.88;2.22;;;2.20;99.40;;;;;;5047111;28;20307;-45
2024/01/20 01:32:20;;;;;;;3.80;2.50;;;2.20;99.40;;;;;;5039545;28;20770;-47
2024/01/20 01:34:48;;;;;;;3.70;2.35;;;2.20;99.40;;;;;;5041429;28;20213;-47
2024/01/20 01:37:18;;;;;;;4.25;2.10;;;2.20;99.40;;;;;;5044493;28;20215;-48
2024/01/20 01:39:46;;;;;;;2.90;2.05;;;2.20;99.50;;;;;;5041934;28;21060;-45
2024/01/20 01:42:15;;;;;;;3.47;2.33;;;2.20;99.40;;;;;;5041337;28;20232;-47
2024/01/20 01:44:43;;;;;;;3.17;2.20;;;2.20;99.20;;;;;;5037079;28;20736;-45
2024/01/20 01:47:11;;;;;;;3.90;2.15;;;2.20;99.40;;;;;;5043991;28;20580;-49
2024/01/20 01:49:39;;;;;;;5.05;2.63;;;2.20;99.30;;;;;;5043471;28;20216;-45
2024/01/20 01:52:14;;;;;;;2.97;2.33;;;2.20;99.40;;;;;;5042460;28;20210;-44
2024/01/20 01:54:44;;;;;;;3.05;2.50;;;2.20;99.40;;;;;;5044399;28;20305;-46
2024/01/20 01:57:14;;;;;;;3.08;2.35;;;2.20;99.40;;;;;;5025995;28;20189;-44
2024/01/20 01:59:43;;;;;;;3.15;1.90;;;2.20;99.40;;;;;;5043524;28;20247;-46
2024/01/20 02:02:11;;;;;;;3.75;2.50;;;2.20;99.40;;;;;;5013609;28;20224;-45
2024/01/20 02:04:39;;;;;;;3.28;2.10;;;2.10;99.40;;;;;;5041635;28;20590;-47
2024/01/20 02:07:08;;;;;;;2.40;1.85;;;2.20;99.40;;;;;;5041431;28;20203;-46
2024/01/20 02:09:36;;;;;;;3.50;2.70;;;2.20;99.40;;;;;;5044954;28;20764;-45
2024/01/20 02:12:08;;;;;;;3.05;2.20;;;2.20;99.40;;;;;;5023835;28;20217;-45
2024/01/20 02:14:36;;;;;;;4.68;2.80;;;2.20;99.40;;;;;;5040575;28;20227;-45
2024/01/20 02:17:06;;;;;;;4.60;2.50;;;2.20;99.40;;;;;;5042804;28;20204;-44
2024/01/20 02:19:37;;;;;;;3.60;2.60;;;2.20;99.40;;;;;;5045532;28;20636;-45
2024/01/20 02:22:11;;;;;;;3.33;2.53;;;2.20;99.40;;;;;;5023846;28;20220;-47
2024/01/20 02:24:40;;;;;;;2.97;2.13;;;2.20;99.40;;;;;;5042414;28;20217;-45
2024/01/20 02:27:09;;;;;;;3.83;2.20;;;2.20;99.30;;;;;;5045427;28;20185;-44
2024/01/20 02:29:39;;;;;;;3.70;2.80;;;2.20;99.30;;;;;;5043138;28;20269;-44
2024/01/20 02:32:08;;;;;;;2.70;2.25;;;2.20;99.30;;;;;;5047408;28;20212;-44
2024/01/20 02:34:37;;;;;;;4.07;2.50;;;2.20;99.30;;;;;;5041860;28;20733;-44
2024/01/20 02:37:07;;;;;;;2.97;2.30;;;2.20;99.30;;;;;;5045132;28;20746;-43
2024/01/20 02:39:36;;;;;;;3.30;2.38;;;2.20;99.30;;;;;;5041237;28;20271;-43
2024/01/20 02:42:08;;;;;;;3.15;2.25;;;2.20;99.30;;;;;;5041215;28;20736;-44
2024/01/20 02:44:36;;;;;;;3.38;2.20;;;2.20;99.30;;;;;;5042992;28;20220;-44
2024/01/20 02:47:05;;;;;;;3.17;2.20;;;2.20;99.30;;;;;;5041451;28;20202;-45
2024/01/20 02:49:34;;;;;;;3.97;2.75;;;2.20;99.30;;;;;;5043978;28;20292;-46
2024/01/20 02:52:04;;;;;;;2.63;2.00;;;2.20;99.30;;;;;;5040199;28;20722;-44
2024/01/20 02:54:31;;;;;;;2.47;1.92;;;2.20;99.30;;;;;;5021134;28;20224;-44
2024/01/20 02:57:01;;;;;;;3.60;2.40;;;2.20;99.30;;;;;;5042262;28;20197;-44
2024/01/20 02:59:30;;;;;;;4.10;2.45;;;2.20;99.30;;;;;;5038891;28;20712;-45
2024/01/20 03:01:58;;;;;;;2.90;1.85;;;2.20;99.30;;;;;;5041605;28;20263;-44
2024/01/20 03:04:26;;;;;;;2.47;1.88;;;2.20;99.40;;;;;;5039083;28;20224;-43
2024/01/20 03:06:55;;;;;;;2.30;1.83;;;2.10;99.30;;;;;;5041513;28;20202;-44
2024/01/20 03:09:23;;;;;;;3.10;2.17;;;2.20;99.30;;;;;;5041835;28;20694;-43
2024/01/20 03:11:51;;;;;;;3.38;2.22;;;2.20;99.40;;;;;;5036609;28;20209;-44
2024/01/20 03:14:21;;;;;;;3.33;2.08;;;2.20;99.40;;;;;;5037160;28;20987;-43
2024/01/20 03:16:49;;;;;;;3.05;2.05;;;2.20;99.40;;;;;;5042550;28;20193;-44
2024/01/20 03:19:17;;;;;;;2.55;2.13;;;2.20;99.40;;;;;;5045133;28;20635;-43
2024/01/20 03:21:45;;;;;;;3.10;1.92;;;2.20;99.40;;;;;;5039531;28;20633;-44
2024/01/20 03:24:18;;;;;;;3.15;2.35;;;2.10;99.30;;;;;;5041634;28;20240;-44
2024/01/20 03:26:46;;;;;;;3.03;2.15;;;2.20;99.40;;;;;;5039521;28;20621;-44
2024/01/20 03:29:15;;;;;;;3.72;2.45;;;2.20;99.30;;;;;;5040246;28;20224;-44
2024/01/20 03:31:44;;;;;;;2.97;2.00;;;2.10;99.40;;;;;;5041929;28;20768;-43
2024/01/20 03:34:12;;;;;;;2.65;2.10;;;2.10;99.40;;;;;;5041208;28;20699;-44
2024/01/20 03:36:41;;;;;;;2.80;2.28;;;2.20;99.40;;;;;;5041203;28;20734;-44
2024/01/20 03:39:09;;;;;;;3.50;2.15;;;2.10;99.30;;;;;;5038730;28;20221;-44
2024/01/20 03:41:38;;;;;;;4.10;2.03;;;2.10;99.30;;;;;;5044144;28;20557;-44
2024/01/20 03:44:06;;;;;;;4.25;2.42;;;2.10;99.30;;;;;;5039918;28;20593;-43
2024/01/20 03:46:34;;;;;;;2.45;1.80;;;2.10;99.30;;;;;;5029898;28;20197;-43
2024/01/20 03:49:03;;;;;;;4.57;2.80;;;2.10;99.30;;;;;;5039992;28;20706;-44
2024/01/20 03:51:32;;;;;;;3.35;2.05;;;2.10;99.30;;;;;;5043651;28;20236;-44
2024/01/20 03:54:01;;;;;;;4.00;1.92;;;2.10;99.30;;;;;;5039630;28;20229;-44
2024/01/20 03:56:30;;;;;;;4.15;2.55;;;2.10;99.30;;;;;;5043369;28;20682;-45
2024/01/20 03:59:00;;;;;;;2.85;1.77;;;2.10;99.80;;;;;;5040060;28;20217;-43
2024/01/20 04:01:28;;;;;;;2.70;1.90;;;2.10;99.40;;;;;;5043957;28;20292;-43
2024/01/20 04:03:56;;;;;;;2.30;1.77;;;2.10;99.80;;;;;;5041479;28;20221;-44
2024/01/20 04:06:26;;;;;;;3.90;2.35;;;2.10;99.40;;;;;;5056929;28;20190;-43
2024/01/20 04:08:54;;;;;;;2.80;2.03;;;2.10;99.30;;;;;;5050614;28;20224;-44
2024/01/20 04:11:23;;;;;;;2.83;1.90;;;2.10;99.30;;;;;;5043134;28;20239;-43
2024/01/20 04:13:51;;;;;;;3.25;2.10;;;2.10;99.60;;;;;;5051606;28;20263;-45
2024/01/20 04:16:19;;;;;;;2.72;1.85;;;2.10;99.10;;;;;;5057057;28;20223;-43
2024/01/20 04:18:47;;;;;;;2.63;2.03;;;2.10;99.20;;;;;;5051859;28;20224;-44
2024/01/20 04:21:15;;;;;;;3.47;2.03;;;2.00;99.10;;;;;;5055599;28;20233;-45
2024/01/20 04:23:45;;;;;;;3.50;2.20;;;2.10;99.30;;;;;;5055387;28;20228;-44
2024/01/20 04:26:13;;;;;;;3.10;1.73;;;2.00;99.30;;;;;;5049449;28;20485;-44
2024/01/20 04:28:41;;;;;;;2.58;1.75;;;2.10;99.40;;;;;;5041790;28;20365;-44
2024/01/20 04:31:09;;;;;;;4.40;2.15;;;2.10;99.40;;;;;;5047866;28;20208;-44
2024/01/20 04:33:39;;;;;;;3.35;1.80;;;2.10;99.40;;;;;;5036668;28;20213;-43
2024/01/20 04:36:08;;;;;;;2.78;1.90;;;2.10;99.40;;;;;;5041487;28;20192;-44
2024/01/20 04:38:36;;;;;;;2.10;1.70;;;2.10;99.40;;;;;;5041118;28;20281;-43
2024/01/20 04:41:06;;;;;;;2.85;1.80;;;2.10;99.80;;;;;;5038796;28;20217;-44
2024/01/20 04:43:34;;;;;;;3.10;1.90;;;2.10;99.30;;;;;;5039634;28;20278;-43
2024/01/20 04:46:02;;;;;;;2.35;1.50;;;2.10;99.30;;;;;;5040416;28;20285;-43
2024/01/20 04:48:31;;;;;;;3.25;2.03;;;2.10;99.30;;;;;;5036198;28;20228;-44
2024/01/20 04:50:59;;;;;;;2.20;1.80;;;2.10;99.30;;;;;;5041875;28;20347;-44
2024/01/20 04:53:28;;;;;;;2.83;2.00;;;2.10;99.30;;;;;;5040319;28;20228;-43
2024/01/20 04:55:56;;;;;;;2.00;1.40;;;2.10;99.30;;;;;;5043860;28;20792;-43
2024/01/20 04:58:25;;;;;;;2.85;1.40;;;2.10;99.30;;;;;;5042145;28;20212;-44
2024/01/20 05:00:53;;;;;;;2.80;1.75;;;2.10;99.30;;;;;;5040703;28;20190;-43
2024/01/20 05:03:22;;;;;;;2.35;1.80;;;2.10;99.30;;;;;;5045100;28;20228;-44
2024/01/20 05:05:50;;;;;;;3.90;2.22;;;2.00;99.30;;;;;;5043472;28;20671;-44
2024/01/20 05:08:18;;;;;;;2.40;1.65;;;2.00;99.30;;;;;;5046277;28;20212;-43
2024/01/20 05:10:46;;;;;;;3.47;1.98;;;2.10;99.30;;;;;;5049931;28;20662;-44
2024/01/20 05:13:15;;;;;;;2.85;1.48;;;2.00;99.30;;;;;;5045332;28;20688;-43
2024/01/20 05:15:44;;;;;;;2.50;1.60;;;2.00;99.30;;;;;;5043432;28;20617;-43
2024/01/20 05:18:12;;;;;;;2.15;1.70;;;2.00;99.30;;;;;;5033485;28;20220;-44
2024/01/20 05:20:42;;;;;;;2.45;1.83;;;2.00;99.30;;;;;;5045691;28;20201;-44
2024/01/20 05:23:10;;;;;;;2.17;1.70;;;2.00;99.30;;;;;;5045858;28;20739;-45
2024/01/20 05:25:38;;;;;;;4.70;1.52;;;2.00;99.30;;;;;;5044291;28;20198;-44
2024/01/20 05:28:06;;;;;;;2.53;1.80;;;2.00;99.20;;;;;;5043927;28;20233;-44
2024/01/20 05:30:34;;;;;;;2.45;1.65;;;2.00;99.20;;;;;;5046092;28;20200;-43
2024/01/20 05:33:04;;;;;;;1.92;1.25;;;2.00;99.30;;;;;;5041808;28;20225;-44
2024/01/20 05:35:32;;;;;;;1.90;1.58;;;2.00;99.30;;;;;;5045182;28;20208;-44
2024/01/20 05:38:00;;;;;;;4.70;1.70;;;2.00;99.20;;;;;;5044726;28;20213;-43
2024/01/20 05:40:29;;;;;;;2.38;1.80;;;2.00;99.30;;;;;;5041584;28;20189;-45
2024/01/20 05:42:57;;;;;;;2.30;1.70;;;2.00;99.30;;;;;;5042106;28;20737;-44
2024/01/20 05:45:25;;;;;;;3.30;1.80;;;2.00;99.30;;;;;;5046209;28;20188;-44
2024/01/20 05:47:53;;;;;;;3.35;1.88;;;2.00;99.30;;;;;;5040149;28;20190;-43
2024/01/20 05:50:23;;;;;;;2.88;2.05;;;2.00;99.30;;;;;;5043480;28;20548;-43
2024/01/20 05:52:52;;;;;;;2.15;1.50;;;2.00;99.30;;;;;;5037243;28;20225;-44
2024/01/20 05:55:20;;;;;;;3.30;2.00;;;2.00;99.30;;;;;;5043564;28;20733;-43
2024/01/20 05:57:48;;;;;;;2.72;1.80;;;2.00;99.30;;;;;;5045939;28;20197;-43
2024/01/20 06:00:19;;;;;;;2.92;1.85;;;2.00;99.30;;;;;;5046813;28;20193;-44
2024/01/20 06:02:47;;;;;;;2.80;1.70;;;2.00;99.30;;;;;;5045589;28;20303;-43
2024/01/20 06:05:16;;;;;;;2.70;1.58;;;1.90;99.30;;;;;;5044332;28;20307;-44
2024/01/20 06:07:45;;;;;;;2.38;1.40;;;2.00;99.30;;;;;;5044530;28;20291;-44
2024/01/20 06:10:14;;;;;;;3.78;2.20;;;2.00;99.30;;;;;;5042857;28;20190;-45
2024/01/20 06:12:41;;;;;;;2.30;1.40;;;2.00;99.30;;;;;;5041681;28;20209;-44
2024/01/20 06:15:11;;;;;;;2.80;2.00;;;1.90;99.30;;;;;;5044101;28;20215;-44
2024/01/20 06:17:39;;;;;;;2.95;1.40;;;2.00;99.30;;;;;;5041687;28;20644;-43
2024/01/20 06:20:08;;;;;;;2.58;1.70;;;2.00;99.20;;;;;;5044374;28;20280;-44
2024/01/20 06:22:39;;;;;;;3.00;2.00;;;1.90;99.20;;;;;;5042551;28;20216;-44
2024/01/20 06:25:09;;;;;;;2.78;1.65;;;1.90;99.20;;;;;;5043574;28;20837;-43
2024/01/20 06:27:37;;;;;;;2.33;1.42;;;1.90;99.20;;;;;;5045977;28;20201;-45
2024/01/20 06:30:07;;;;;;;3.00;1.55;;;1.90;99.20;;;;;;5049948;28;20225;-44
2024/01/20 06:32:35;;;;;;;1.98;1.48;;;1.90;99.20;;;;;;5043112;28;20716;-44
2024/01/20 06:35:04;;;;;;;2.50;1.60;;;1.90;99.20;;;;;;5041759;28;20252;-43
2024/01/20 06:37:33;;;;;;;2.25;1.27;;;1.90;99.20;;;;;;5044299;28;20200;-43
2024/01/20 06:40:01;;;;;;;2.45;1.40;;;1.90;99.20;;;;;;5043237;28;20683;-44
2024/01/20 06:42:30;;;;;;;2.35;1.60;;;1.90;99.20;;;;;;5043716;28;20209;-44
2024/01/20 06:44:59;;;;;;;4.32;2.13;;;1.90;99.20;;;;;;5043802;28;20267;-44
2024/01/20 06:47:29;;;;;;;2.60;1.70;;;1.90;99.20;;;;;;5043986;28;20190;-44
2024/01/20 06:49:58;;;;;;;3.30;1.75;;;1.90;99.20;;;;;;5042176;28;20224;-44
2024/01/20 06:52:29;;;;;;;1.77;1.20;;;1.90;99.20;;;;;;5042841;28;20236;-43
2024/01/20 06:54:58;;;;;;;2.35;1.73;;;1.90;99.20;;;;;;5041189;28;20215;-43
2024/01/20 06:57:26;;;;;;;4.47;1.70;;;1.90;99.20;;;;;;5043423;28;20697;-46
2024/01/20 06:59:56;;;;;;;1.92;1.45;;;1.90;99.20;;;;;;5042523;28;20225;-44
2024/01/20 07:02:24;;;;;;;3.70;1.80;;;1.90;99.20;;;;;;5046268;28;20209;-46
2024/01/20 07:04:52;;;;;;;2.50;1.60;;;1.90;99.10;;;;;;5041054;28;20381;-45
2024/01/20 07:07:20;;;;;;;2.30;1.73;;;1.90;99.10;;;;;;5037440;28;20279;-45
2024/01/20 07:09:48;;;;;;;3.67;1.60;;;1.90;99.10;;;;;;5042169;28;20213;-47
2024/01/20 07:12:16;;;;;;;2.80;2.60;;;1.90;99.10;;;;;;5046123;28;20687;-45
2024/01/20 07:14:45;;;;;;;2.78;1.90;;;1.90;99.10;;;;;;5038327;28;20770;-45
2024/01/20 07:17:14;;;;;;;2.85;1.80;;;1.90;99.10;;;;;;5044379;28;20185;-45
2024/01/20 07:19:43;;;;;;;3.60;1.88;;;1.90;99.10;;;;;;5043027;28;20217;-45
2024/01/20 07:22:11;;;;;;;2.28;1.48;;;1.90;99.10;;;;;;5044042;28;20212;-46
2024/01/20 07:24:39;;;;;;;2.30;1.40;;;1.90;99.10;;;;;;5038459;28;20589;-45
2024/01/20 07:27:07;;;;;;;2.28;1.67;;;1.90;99.00;;;;;;5041092;28;20197;-45
2024/01/20 07:29:36;;;;;;;2.10;1.63;;;1.90;99.10;;;;;;5040936;28;20225;-46
2024/01/20 07:32:04;;;;;;;2.83;1.65;;;1.90;99.10;;;;;;5040895;28;20213;-45
2024/01/20 07:34:34;;;;;;;3.05;1.83;;;1.90;99.10;;;;;;5041112;28;20232;-47
2024/01/20 07:37:02;;;;;;;3.08;1.88;;;1.90;99.10;;;;;;5039555;28;20186;-44
2024/01/20 07:39:30;;;;;;;2.20;1.58;;;1.90;99.60;;;;;;5045834;28;20229;-47
2024/01/20 07:41:59;;;;;;;2.05;1.48;;;1.90;99.10;;;;;;5042894;28;20228;-46
2024/01/20 07:44:27;;;;;;;3.55;1.80;;;1.80;99.00;;;;;;5037109;28;20275;-45
2024/01/20 07:46:57;;;;;;;3.53;1.90;;;1.80;99.00;;;;;;5028542;28;20197;-44
2024/01/20 07:49:25;;;;;;;3.00;1.30;;;1.80;99.00;;;;;;5043273;28;20217;-45
2024/01/20 07:51:55;;;;;;;3.78;2.00;;;1.80;99.10;;;;;;5040582;28;20208;-45
2024/01/20 07:54:23;;;;;;;6.18;2.45;;;1.80;99.00;;;;;;5024275;28;20209;-45
2024/01/20 07:56:51;;;;;;;6.85;3.35;;;1.80;98.70;;;;;;5038422;28;20439;-46
2024/01/20 07:59:19;;;;;;;5.60;3.33;;;1.50;92.60;;;;;;5043428;28;20270;-46
2024/01/20 08:01:48;;;;;;;3.92;3.13;;;1.50;96.10;;;;;;5044581;28;20461;-44
2024/01/20 08:04:17;;;;;;;4.10;2.35;;;1.50;96.30;;;;;;5043325;28;20263;-43
2024/01/20 08:06:45;;;;;;;4.35;2.88;;;1.50;95.90;;;;;;5046993;28;20603;-44
2024/01/20 08:09:15;;;;;;;3.45;2.80;;;1.50;96.10;;;;;;5044722;28;20599;-46
2024/01/20 08:11:43;;;;;;;3.83;2.83;;;1.60;96.10;;;;;;5044039;28;20244;-45
2024/01/20 08:14:12;;;;;;;3.72;2.20;;;1.60;96.10;;;;;;5042766;28;20275;-45
2024/01/20 08:16:40;;;;;;;2.90;2.28;;;1.60;96.20;;;;;;5045280;28;20279;-46
2024/01/20 08:19:09;;;;;;;6.15;3.17;;;1.60;96.30;;;;;;5041965;28;20227;-46
2024/01/20 08:21:37;;;;;;;5.65;2.58;;;1.60;96.50;;;;;;5044390;28;20220;-44
2024/01/20 08:24:06;;;;;;;3.97;2.70;;;1.70;96.60;;;;;;5043806;28;20219;-45
2024/01/20 08:26:35;;;;;;;6.78;2.50;;;1.60;96.70;;;;;;5042289;28;20212;-45
2024/01/20 08:29:03;;;;;;;3.42;2.50;;;1.70;96.90;;;;;;5039515;28;20225;-45
2024/01/20 08:31:31;;;;;;;3.70;2.05;;;1.70;97.00;;;;;;5043819;28;20224;-47
2024/01/20 08:34:00;;;;;;;2.92;2.42;;;1.70;97.10;;;;;;5044453;28;20217;-46
2024/01/20 08:36:28;;;;;;;2.83;2.10;;;1.70;97.20;;;;;;5046296;28;20279;-44
2024/01/20 08:38:56;;;;;;;5.13;2.63;;;1.70;97.30;;;;;;5042414;28;20227;-46
2024/01/20 08:41:25;;;;;;;5.30;2.40;;;1.70;97.30;;;;;;5044533;28;20304;-43
2024/01/20 08:43:55;;;;;;;4.05;2.70;;;1.70;97.40;;;;;;5043792;28;20251;-48
2024/01/20 08:46:25;;;;;;;3.72;2.38;;;1.70;97.60;;;;;;5042080;28;20220;-45
2024/01/20 08:48:53;;;;;;;4.75;3.00;;;1.70;97.30;;;;;;5043289;28;20216;-44
2024/01/20 08:51:21;;;;;;;2.30;2.03;;;1.60;97.70;;;;;;5044482;28;20213;-45
2024/01/20 08:53:49;;;;;;;4.07;1.92;;;1.70;97.80;;;;;;5044042;28;20455;-47
2024/01/20 08:56:17;;;;;;;3.63;2.25;;;1.70;97.80;;;;;;5047455;28;20193;-44
2024/01/20 08:58:46;;;;;;;3.55;2.20;;;1.70;97.90;;;;;;5046523;28;20623;-47
2024/01/20 09:01:17;;;;;;;3.10;2.38;;;1.70;97.90;;;;;;5049170;28;20308;-45
2024/01/20 09:03:45;;;;;;;7.53;5.53;;;1.70;98.30;;;;;;5043921;28;20225;-45
2024/01/20 09:06:15;;;;;;;14.55;12.57;;;1.60;93.60;;;;;;5048372;28;20292;-43
2024/01/20 09:08:43;;;;;;;8.20;6.50;;;1.20;85.50;;;;;;5054553;28;20224;-44
2024/01/20 09:11:11;;;;;;;10.77;6.80;;;0.90;83.10;;;;;;5059068;28;20821;-44
2024/01/20 09:13:39;;;;;;;8.73;6.00;;;0.60;87.30;;;;;;5058274;28;20231;-44
2024/01/20 09:16:09;;;;;;;9.48;5.60;;;0.60;91.80;;;;;;5062000;28;20185;-47
2024/01/20 09:18:39;;;;;;;8.57;6.35;;;0.70;95.00;;;;;;5061389;28;20212;-44
2024/01/20 09:21:10;;;;;;;7.47;6.45;;;0.90;95.00;;;;;;5061944;28;20213;-44
2024/01/20 09:23:39;;;;;;;7.70;6.03;;;0.90;94.40;;;;;;5060013;28;20702;-43
2024/01/20 09:26:07;;;;;;;8.25;6.15;;;1.00;94.90;;;;;;5061968;28;20559;-44
2024/01/20 09:28:35;;;;;;;19.92;6.50;;;1.10;95.00;;;;;;5057990;28;20216;-44
2024/01/20 09:31:04;;;;;;;8.75;6.05;;;1.30;95.00;;;;;;5052550;28;20698;-43
2024/01/20 09:33:36;;;;;;;6.50;5.80;;;1.40;94.60;;;;;;5049035;28;20254;-44
2024/01/20 09:36:06;;;;;;;6.25;5.25;;;1.40;94.70;;;;;;5040187;28;20206;-43
2024/01/20 09:38:34;;;;;;;6.70;5.90;;;1.50;95.00;;;;;;5042039;28;20228;-43
2024/01/20 09:41:09;;;;;;;6.85;5.25;;;1.50;94.80;;;;;;5046955;28;20216;-44
2024/01/20 09:43:39;;;;;;;7.38;5.30;;;1.50;95.00;;;;;;5045226;28;20220;-45
2024/01/20 09:46:08;;;;;;;8.48;5.55;;;1.60;95.30;;;;;;5023909;28;20679;-44
2024/01/20 09:48:36;;;;;;;6.45;4.70;;;1.60;94.50;;;;;;5042270;28;20213;-45
2024/01/20 09:51:07;;;;;;;8.90;5.82;;;1.70;95.70;;;;;;5045235;28;20457;-43
2024/01/20 09:53:36;;;;;;;9.82;5.70;;;1.80;95.40;;;;;;5041854;28;20260;-47
2024/01/20 09:56:05;;;;;;;6.72;4.65;;;1.70;94.40;;;;;;5043868;28;20198;-44
2024/01/20 09:58:35;;;;;;;6.47;5.72;;;1.70;94.20;;;;;;5045490;28;20712;-44
2024/01/20 10:01:03;;;;;;;6.82;5.70;;;1.70;93.90;;;;;;5026122;28;20267;-45
2024/01/20 10:03:35;;;;;;;10.15;5.88;;;1.70;93.90;;;;;;5046064;28;20305;-45
2024/01/20 10:06:06;;;;;;;8.50;5.53;;;1.70;93.70;;;;;;5047650;28;20312;-44
2024/01/20 10:08:34;;;;;;;7.38;6.20;;;1.70;93.60;;;;;;5046070;28;20701;-43
2024/01/20 10:11:06;;;;;;;7.55;5.35;;;1.70;94.00;;;;;;5041504;28;20308;-44
2024/01/20 10:13:34;;;;;;;5.30;4.72;;;1.70;93.90;;;;;;5046614;28;20224;-44
2024/01/20 10:16:03;;;;;;;8.23;5.28;;;1.70;94.40;;;;;;5041672;28;20221;-45
2024/01/20 10:18:31;;;;;;;7.15;5.18;;;1.70;94.10;;;;;;5042281;28;20741;-48
2024/01/20 10:21:05;;;;;;;7.72;3.97;;;1.70;94.20;;;;;;5039533;28;20248;-43
2024/01/20 10:23:35;;;;;;;7.70;5.60;;;1.70;95.70;;;;;;5042945;28;20215;-43
2024/01/20 10:26:04;;;;;;;7.60;4.50;;;1.70;95.20;;;;;;5046979;28;20635;-44
2024/01/20 10:28:34;;;;;;;6.95;5.00;;;1.70;95.30;;;;;;5044600;28;20231;-43
2024/01/20 10:31:07;;;;;;;7.20;5.35;;;1.70;94.90;;;;;;5043932;28;20223;-43
2024/01/20 10:33:35;;;;;;;8.98;5.30;;;1.70;95.00;;;;;;5041092;28;20266;-43
2024/01/20 10:36:06;;;;;;;8.25;5.68;;;1.70;94.80;;;;;;5045062;28;20192;-43
2024/01/20 10:38:38;;;;;;;9.80;4.40;;;1.70;95.70;;;;;;5045605;28;20224;-42
2024/01/20 10:41:08;;;;;;;8.32;4.30;;;1.70;95.70;;;;;;5044868;28;20213;-43
2024/01/20 10:43:43;;;;;;;5.75;4.80;;;1.70;96.50;;;;;;5043670;28;20248;-43
2024/01/20 10:46:18;;;;;;;6.30;4.85;;;1.70;96.40;;;;;;5043870;28;20633;-42
2024/01/20 10:48:53;;;;;;;8.90;5.75;;;1.70;96.80;;;;;;5044740;28;20232;-43
2024/01/20 10:51:26;;;;;;;9.43;4.55;;;1.70;97.00;;;;;;5046470;28;20640;-43
2024/01/20 10:53:56;;;;;;;9.00;5.75;;;1.80;97.30;;;;;;5041855;28;20220;-45
2024/01/20 10:56:25;;;;;;;5.93;4.55;;;1.70;96.80;;;;;;5028135;28;20196;-43
2024/01/20 10:59:02;;;;;;;7.68;5.18;;;1.80;97.30;;;;;;5044137;28;20283;-43
2024/01/20 11:01:31;;;;;;;7.32;5.43;;;1.70;97.30;;;;;;5043926;28;20682;-43
2024/01/20 11:03:59;;;;;;;7.35;5.05;;;1.80;97.50;;;;;;5044857;28;20224;-43
2024/01/20 11:06:30;;;;;;;6.32;5.07;;;1.80;97.70;;;;;;5046646;28;20690;-43
2024/01/20 11:09:01;;;;;;;6.18;4.63;;;1.80;97.60;;;;;;5042532;28;20221;-44
2024/01/20 11:11:34;;;;;;;5.35;4.35;;;1.80;97.60;;;;;;5048426;28;20282;-44
2024/01/20 11:14:03;;;;;;;5.35;4.25;;;1.80;97.70;;;;;;5042450;28;20365;-43
2024/01/20 11:16:33;;;;;;;7.15;4.90;;;1.80;97.90;;;;;;5048279;28;20219;-43
2024/01/20 11:19:08;;;;;;;6.60;5.00;;;1.80;97.90;;;;;;5043746;28;20228;-43
2024/01/20 11:21:38;;;;;;;5.38;4.32;;;1.80;98.00;;;;;;5046376;28;20224;-43
2024/01/20 11:24:07;;;;;;;8.90;4.88;;;1.80;98.00;;;;;;5043459;28;20275;-44
2024/01/20 11:26:37;;;;;;;5.78;4.90;;;1.80;98.00;;;;;;5043013;28;20240;-44
2024/01/20 11:29:06;;;;;;;5.57;3.85;;;1.80;98.10;;;;;;5044604;28;20687;-46
2024/01/20 11:31:35;;;;;;;7.35;4.90;;;1.80;98.20;;;;;;5040825;28;20725;-44
2024/01/20 11:34:05;;;;;;;6.25;4.60;;;1.80;98.20;;;;;;5043157;28;20224;-49
2024/01/20 11:36:35;;;;;;;5.63;4.45;;;1.80;98.20;;;;;;5039705;28;20220;-46
2024/01/20 11:39:05;;;;;;;4.95;3.67;;;1.80;98.10;;;;;;5039860;28;20220;-46
2024/01/20 11:41:34;;;;;;;7.90;3.95;;;1.80;97.80;;;;;;5045707;28;20690;-46
2024/01/20 11:44:03;;;;;;;4.53;3.35;;;1.80;97.40;;;;;;5037045;28;20637;-46
2024/01/20 11:46:31;;;;;;;6.13;4.07;;;1.80;97.70;;;;;;5043010;28;20213;-45
2024/01/20 11:48:59;;;;;;;4.38;3.67;;;1.80;98.20;;;;;;5044219;28;20263;-46
2024/01/20 11:51:27;;;;;;;6.82;4.25;;;1.80;97.50;;;;;;5044455;28;20240;-44
2024/01/20 11:53:56;;;;;;;6.50;4.15;;;1.80;97.20;;;;;;5041462;28;20209;-44
2024/01/20 11:56:25;;;;;;;4.28;3.10;;;1.80;97.70;;;;;;5047506;28;20193;-44
2024/01/20 11:58:53;;;;;;;5.20;4.07;;;1.80;97.80;;;;;;5042690;28;20278;-44
2024/01/20 12:01:21;;;;;;;7.03;4.20;;;1.80;97.90;;;;;;5034076;28;20216;-44
2024/01/20 12:03:50;;;;;;;6.35;3.83;;;1.80;97.50;;;;;;5041840;28;20690;-42
2024/01/20 12:06:18;;;;;;;4.95;3.17;;;1.80;97.20;;;;;;5041426;28;20213;-45
2024/01/20 12:08:47;;;;;;;8.57;3.28;;;1.80;97.00;;;;;;5041060;28;20696;-45
2024/01/20 12:11:19;;;;;;;3.63;2.00;;;1.80;93.10;;;;;;5047174;28;20220;-45
2024/01/20 12:13:49;;;;;;;2.78;2.25;;;1.70;91.80;;;;;;5048844;28;20312;-48
2024/01/20 12:16:18;;;;;;;2.83;2.60;;;1.60;90.60;;;;;;5049564;28;20200;-45
2024/01/20 12:18:47;;;;;;;3.85;2.80;;;1.60;91.00;;;;;;5047378;28;20232;-45
2024/01/20 12:21:16;;;;;;;6.82;3.58;;;1.50;90.60;;;;;;5047906;28;20669;-45
2024/01/20 12:23:46;;;;;;;12.43;3.40;;;1.40;91.00;;;;;;5047098;28;20226;-44
2024/01/20 12:26:16;;;;;;;4.85;2.92;;;1.40;91.60;;;;;;5045452;28;20559;-44
2024/01/20 12:28:46;;;;;;;11.18;5.47;;;1.50;92.60;;;;;;5047908;28;20303;-43
2024/01/20 12:31:16;;;;;;;5.25;4.32;;;1.50;92.30;;;;;;5049744;28;20505;-43
2024/01/20 12:33:51;;;;;;;5.03;4.43;;;1.50;92.70;;;;;;5048561;28;20220;-43
2024/01/20 12:36:19;;;;;;;6.07;4.43;;;1.50;93.20;;;;;;5050982;28;20650;-44
2024/01/20 12:38:48;;;;;;;6.38;4.10;;;1.60;93.80;;;;;;5047472;28;20781;-44
2024/01/20 12:41:17;;;;;;;7.97;4.80;;;1.60;94.10;;;;;;5047905;28;20234;-43
2024/01/20 12:43:48;;;;;;;7.85;3.85;;;1.60;94.60;;;;;;5047598;28;20224;-43
2024/01/20 12:46:19;;;;;;;4.45;3.40;;;1.60;94.60;;;;;;5047913;28;20674;-43
2024/01/20 12:48:47;;;;;;;5.95;3.50;;;1.70;94.70;;;;;;5044223;28;20224;-43
2024/01/20 12:51:15;;;;;;;6.90;4.05;;;1.70;95.10;;;;;;5050269;28;20438;-43
2024/01/20 12:53:44;;;;;;;8.20;4.50;;;1.70;95.10;;;;;;5049566;28;20223;-44
2024/01/20 12:56:13;;;;;;;6.32;3.38;;;1.70;94.80;;;;;;5049081;28;20197;-43
2024/01/20 12:58:41;;;;;;;5.13;3.63;;;1.70;95.50;;;;;;5047216;28;20252;-44
2024/01/20 13:01:11;;;;;;;6.28;4.63;;;1.70;95.60;;;;;;5050273;28;20602;-43
2024/01/20 13:03:43;;;;;;;5.10;3.95;;;1.70;95.70;;;;;;5050710;28;20227;-44
2024/01/20 13:06:11;;;;;;;7.45;4.25;;;1.70;94.80;;;;;;5048694;28;20228;-42